Joanne Reinauer — WCW8841 — position and weather

sailwx.info

Track history (hours):
 
Tides and Currents Weather Stations Pressure Air Temp Water Temp Dewpoint Dewpoint Depression Visibility Wind Speed Wind Dir Waves Ship Positions

Joanne Reinauer

Owner: REINAUER TRANSPORTATION CO.LLC., STATEN ISLAND, NY. More information available from US FCC via Universal Licensing System and Coast Guard Vessel Documentation Center.

Last reported at 2018-Jan-18 07:07 UTC. Time now 2018-Jan-18 08:00 UTC.
Position N 40°38' W 074°08'.

Length 114 m; draft 4.4 m.

Type: . MMSI: 366238690.

Date/timePositionNaut miles runAvg speedWind from/ knotsBaromVisibWave heightAir tempDewpointWater temp
2018-Jan-18 07:07N 40°38' W 074°08'0 0.0
2018-Jan-18 05:37N 40°38' W 074°08'0 0.0
2018-Jan-18 05:28N 40°38' W 074°08'0 0.0
2018-Jan-18 04:58N 40°38' W 074°08'0 0.0
2018-Jan-18 04:28N 40°38' W 074°08'0 0.0
2018-Jan-18 03:58N 40°38' W 074°08'0 0.0
2018-Jan-18 03:28N 40°38' W 074°08'0 0.0
2018-Jan-18 02:58N 40°38' W 074°08'0 0.0
2018-Jan-18 02:28N 40°38' W 074°08'0 0.0
2018-Jan-18 01:58N 40°38' W 074°08'0 0.0
2018-Jan-18 01:28N 40°38' W 074°08'0 0.0
2018-Jan-18 00:58N 40°38' W 074°08'0 0.0
2018-Jan-17 23:58N 40°38' W 074°08'0 0.0
2018-Jan-17 23:52N 40°38' W 074°08'  
2018-Jan-12 14:51N 40°36' W 074°12'0 0.0
2018-Jan-12 14:27N 40°36' W 074°12'0 0.0
2018-Jan-12 13:45N 40°36' W 074°12'0 0.0
2018-Jan-12 13:15N 40°36' W 074°12'0 0.0
2018-Jan-12 12:51N 40°36' W 074°12'0 0.0
2018-Jan-12 12:27N 40°36' W 074°12'0 0.0
2018-Jan-12 11:57N 40°36' W 074°12'0 0.0
2018-Jan-12 11:27N 40°36' W 074°12'0 0.0
2018-Jan-12 10:57N 40°36' W 074°12'0 0.0
2018-Jan-12 10:27N 40°36' W 074°12'0 0.0
2018-Jan-12 09:57N 40°36' W 074°12'0 0.0
2018-Jan-12 09:21N 40°36' W 074°12'0 0.0
2018-Jan-12 08:57N 40°36' W 074°12'0 0.0
2018-Jan-12 08:27N 40°36' W 074°12'0 0.0
2018-Jan-12 07:57N 40°36' W 074°12'0 0.0
2018-Jan-12 07:27N 40°36' W 074°12'0 0.0
2018-Jan-12 06:57N 40°36' W 074°12'0 0.0
2018-Jan-12 06:15N 40°36' W 074°12'0 0.0
2018-Jan-12 05:51N 40°36' W 074°12'0 0.0
2018-Jan-12 05:27N 40°36' W 074°12'0 0.0
2018-Jan-12 04:57N 40°36' W 074°12'0 0.0
2018-Jan-12 04:27N 40°36' W 074°12'0 0.0
2018-Jan-12 03:57N 40°36' W 074°12'0 0.0
2018-Jan-12 03:27N 40°36' W 074°12'0 0.0
2018-Jan-12 02:45N 40°36' W 074°12'0 0.0
2018-Jan-11 22:34N 40°36' W 074°12'1 1.5
2018-Jan-11 22:10N 40°36' W 074°12'1 3.6
2018-Jan-11 21:50N 40°38' W 074°12'1 1.6
2018-Jan-11 21:28N 40°38' W 074°12'3 5.8
2018-Jan-11 21:00N 40°39' W 074°08'3 5.0
2018-Jan-11 20:29N 40°39' W 074°05'4 7.7
2018-Jan-11 20:00N 40°41' W 074°01'3 6.9
2018-Jan-11 19:30N 40°44' W 073°58'2 0.1
2018-Jan-11 03:39N 40°46' W 073°57'1 6.1
2018-Jan-11 03:28N 40°45' W 073°58'2 5.4
2018-Jan-11 03:00N 40°42' W 073°59'3 6.1
2018-Jan-11 02:30N 40°40' W 074°02'2 4.8
2018-Jan-11 02:00N 40°39' W 074°05'0 0.2
2018-Jan-11 01:30N 40°39' W 074°05'0 0.1
2018-Jan-11 00:55N 40°39' W 074°05'1 3.6
2018-Jan-11 00:30N 40°39' W 074°07'1 1.3
2018-Jan-10 23:59N 40°38' W 074°08'0 0.0
2018-Jan-10 23:23N 40°38' W 074°08'0 0.0
2018-Jan-10 22:59N 40°38' W 074°08'0 0.0
2018-Jan-10 22:29N 40°38' W 074°08'0 0.0
2018-Jan-10 21:59N 40°38' W 074°08'0 0.0
2018-Jan-10 21:29N 40°38' W 074°08'0 0.0
2018-Jan-10 20:56N 40°38' W 074°08'0 0.0
2018-Jan-10 17:49N 40°38' W 074°08'2 7.4
2018-Jan-10 17:30N 40°39' W 074°05'3 5.7
2018-Jan-10 16:59N 40°40' W 074°01'2 3.6
2018-Jan-10 16:29N 40°39' W 074°03'2 3.6
2018-Jan-10 15:58N 40°40' W 074°01'0 0.0
2018-Jan-10 15:28N 40°40' W 074°01'0 0.0
2018-Jan-10 14:58N 40°40' W 074°01'0 0.2
2018-Jan-10 14:28N 40°40' W 074°01'0 0.0
2018-Jan-10 13:58N 40°40' W 074°01'0 0.0
2018-Jan-10 13:28N 40°40' W 074°01'0 0.0
2018-Jan-10 12:58N 40°40' W 074°01'0 0.0
2018-Jan-10 12:28N 40°40' W 074°01'0 0.0
2018-Jan-10 12:01N 40°40' W 074°01'0 0.0
2018-Jan-10 11:31N 40°40' W 074°01'0 0.0
2018-Jan-10 10:58N 40°40' W 074°01'0 0.0
2018-Jan-10 10:28N 40°40' W 074°01'0 0.0
2018-Jan-10 09:58N 40°40' W 074°01'0 0.0
2018-Jan-10 09:28N 40°40' W 074°01'0 0.0
2018-Jan-10 09:01N 40°40' W 074°01'1 1.3
2018-Jan-10 08:30N 40°40' W 074°01'3 6.1
2018-Jan-10 08:00N 40°39' W 074°05'0 0.0
2018-Jan-10 07:30N 40°39' W 074°05'2 4.9
2018-Jan-10 07:00N 40°40' W 074°02'0 0.1
2018-Jan-10 06:30N 40°40' W 074°02'0 0.0
2018-Jan-10 06:00N 40°40' W 074°02'0 0.1
2018-Jan-10 05:30N 40°40' W 074°02'0 0.2
2018-Jan-10 05:01N 40°40' W 074°02'1 1.5
2018-Jan-10 04:30N 40°40' W 074°01'1 1.5
2018-Jan-10 03:58N 40°40' W 074°02'0 0.0
2018-Jan-10 03:28N 40°40' W 074°02'0 0.0
2018-Jan-10 02:58N 40°40' W 074°02'0 0.0
2018-Jan-10 02:28N 40°40' W 074°02'0 0.0
2018-Jan-10 01:58N 40°40' W 074°02'0 0.0
2018-Jan-10 01:28N 40°40' W 074°02'0 0.0
2018-Jan-10 00:58N 40°40' W 074°02'0 0.0
2018-Jan-10 00:28N 40°40' W 074°02'0 0.0
2018-Jan-09 23:58N 40°40' W 074°02'0 0.0
2018-Jan-09 23:28N 40°40' W 074°02'0 0.0
2018-Jan-09 22:58N 40°40' W 074°02'0 0.0
2018-Jan-09 22:28N 40°40' W 074°02'0 0.1
2018-Jan-09 21:58N 40°40' W 074°02'0 0.1
2018-Jan-09 21:28N 40°40' W 074°02'0 0.0
2018-Jan-09 20:58N 40°40' W 074°02'0 0.1
2018-Jan-09 20:28N 40°40' W 074°02'0 0.1
2018-Jan-09 19:58N 40°40' W 074°02'0 0.1
2018-Jan-09 19:28N 40°40' W 074°02'0 0.0
2018-Jan-09 18:58N 40°40' W 074°02'0 0.0
2018-Jan-09 18:28N 40°40' W 074°02'0 0.0
2018-Jan-09 17:58N 40°40' W 074°02'0 0.0
2018-Jan-09 17:28N 40°40' W 074°02'0 0.0
2018-Jan-09 17:01N 40°40' W 074°02'0 0.8
2018-Jan-09 16:31N 40°40' W 074°02'4 7.1
2018-Jan-09 16:01N 40°43' W 073°58'2 0.1
2018-Jan-08 20:06N 40°45' W 073°58'2 8.3
2018-Jan-08 19:52N 40°43' W 073°58'3 8.6
2018-Jan-08 19:30N 40°41' W 074°01'3 6.7
2018-Jan-08 18:59N 40°39' W 074°05'0 0.1
2018-Jan-08 18:30N 40°39' W 074°05'2 0.7
2018-Jan-08 15:35N 40°38' W 074°08'1 8.9
2018-Jan-08 15:30N 40°39' W 074°07'4 8.9
2018-Jan-08 15:00N 40°40' W 074°02'1 1.2
2018-Jan-08 14:29N 40°40' W 074°01'0 0.0
2018-Jan-08 13:59N 40°40' W 074°01'0 0.0
2018-Jan-08 13:29N 40°40' W 074°01'0 0.0
2018-Jan-08 12:59N 40°40' W 074°01'0 0.0
2018-Jan-08 12:29N 40°40' W 074°01'0 0.0
2018-Jan-08 11:59N 40°40' W 074°01'0 0.0
2018-Jan-08 11:29N 40°40' W 074°01'0 0.0
2018-Jan-08 10:59N 40°40' W 074°01'0 0.0
2018-Jan-08 10:29N 40°40' W 074°01'0 0.0
2018-Jan-08 09:59N 40°40' W 074°01'0 0.0
2018-Jan-08 09:29N 40°40' W 074°01'0 0.0
2018-Jan-08 08:50N 40°40' W 074°01'0 0.0
2018-Jan-08 08:29N 40°40' W 074°01'0 0.0
2018-Jan-08 07:59N 40°40' W 074°01'0 0.0
2018-Jan-08 07:29N 40°40' W 074°01'  
Track history (hours):
 
Tides and Currents Weather Stations Pressure Air Temp Water Temp Dewpoint Dewpoint Depression Visibility Wind Speed Wind Dir Waves Ship Positions

Joanne Reinauer

Owner: REINAUER TRANSPORTATION CO.LLC., STATEN ISLAND, NY. More information available from US FCC via Universal Licensing System and Coast Guard Vessel Documentation Center.

Last reported at 2018-Jan-18 07:07 UTC. Time now 2018-Jan-18 08:00 UTC.
Position N 40°38' W 074°08'.

Length 114 m; draft 4.4 m.

Type: . MMSI: 366238690.

Date/timePositionNaut miles runAvg speedWind from/ knotsBaromVisibWave heightAir tempDewpointWater temp
2018-Jan-18 07:07N 40°38' W 074°08'0 0.0
2018-Jan-18 05:37N 40°38' W 074°08'0 0.0
2018-Jan-18 05:28N 40°38' W 074°08'0 0.0
2018-Jan-18 04:58N 40°38' W 074°08'0 0.0
2018-Jan-18 04:28N 40°38' W 074°08'0 0.0
2018-Jan-18 03:58N 40°38' W 074°08'0 0.0
2018-Jan-18 03:28N 40°38' W 074°08'0 0.0
2018-Jan-18 02:58N 40°38' W 074°08'0 0.0
2018-Jan-18 02:28N 40°38' W 074°08'0 0.0
2018-Jan-18 01:58N 40°38' W 074°08'0 0.0
2018-Jan-18 01:28N 40°38' W 074°08'0 0.0
2018-Jan-18 00:58N 40°38' W 074°08'0 0.0
2018-Jan-17 23:58N 40°38' W 074°08'0 0.0
2018-Jan-17 23:52N 40°38' W 074°08'  
2018-Jan-12 14:51N 40°36' W 074°12'0 0.0
2018-Jan-12 14:27N 40°36' W 074°12'0 0.0
2018-Jan-12 13:45N 40°36' W 074°12'0 0.0
2018-Jan-12 13:15N 40°36' W 074°12'0 0.0
2018-Jan-12 12:51N 40°36' W 074°12'0 0.0
2018-Jan-12 12:27N 40°36' W 074°12'0 0.0
2018-Jan-12 11:57N 40°36' W 074°12'0 0.0
2018-Jan-12 11:27N 40°36' W 074°12'0 0.0
2018-Jan-12 10:57N 40°36' W 074°12'0 0.0
2018-Jan-12 10:27N 40°36' W 074°12'0 0.0
2018-Jan-12 09:57N 40°36' W 074°12'0 0.0
2018-Jan-12 09:21N 40°36' W 074°12'0 0.0
2018-Jan-12 08:57N 40°36' W 074°12'0 0.0
2018-Jan-12 08:27N 40°36' W 074°12'0 0.0
2018-Jan-12 07:57N 40°36' W 074°12'0 0.0
2018-Jan-12 07:27N 40°36' W 074°12'0 0.0
2018-Jan-12 06:57N 40°36' W 074°12'0 0.0
2018-Jan-12 06:15N 40°36' W 074°12'0 0.0
2018-Jan-12 05:51N 40°36' W 074°12'0 0.0
2018-Jan-12 05:27N 40°36' W 074°12'0 0.0
2018-Jan-12 04:57N 40°36' W 074°12'0 0.0
2018-Jan-12 04:27N 40°36' W 074°12'0 0.0
2018-Jan-12 03:57N 40°36' W 074°12'0 0.0
2018-Jan-12 03:27N 40°36' W 074°12'0 0.0
2018-Jan-12 02:45N 40°36' W 074°12'0 0.0
2018-Jan-11 22:34N 40°36' W 074°12'1 1.5
2018-Jan-11 22:10N 40°36' W 074°12'1 3.6
2018-Jan-11 21:50N 40°38' W 074°12'1 1.6
2018-Jan-11 21:28N 40°38' W 074°12'3 5.8
2018-Jan-11 21:00N 40°39' W 074°08'3 5.0
2018-Jan-11 20:29N 40°39' W 074°05'4 7.7
2018-Jan-11 20:00N 40°41' W 074°01'3 6.9
2018-Jan-11 19:30N 40°44' W 073°58'2 0.1
2018-Jan-11 03:39N 40°46' W 073°57'1 6.1
2018-Jan-11 03:28N 40°45' W 073°58'2 5.4
2018-Jan-11 03:00N 40°42' W 073°59'3 6.1
2018-Jan-11 02:30N 40°40' W 074°02'2 4.8
2018-Jan-11 02:00N 40°39' W 074°05'0 0.2
2018-Jan-11 01:30N 40°39' W 074°05'0 0.1
2018-Jan-11 00:55N 40°39' W 074°05'1 3.6
2018-Jan-11 00:30N 40°39' W 074°07'1 1.3
2018-Jan-10 23:59N 40°38' W 074°08'0 0.0
2018-Jan-10 23:23N 40°38' W 074°08'0 0.0
2018-Jan-10 22:59N 40°38' W 074°08'0 0.0
2018-Jan-10 22:29N 40°38' W 074°08'0 0.0
2018-Jan-10 21:59N 40°38' W 074°08'0 0.0
2018-Jan-10 21:29N 40°38' W 074°08'0 0.0
2018-Jan-10 20:56N 40°38' W 074°08'0 0.0
2018-Jan-10 17:49N 40°38' W 074°08'2 7.4
2018-Jan-10 17:30N 40°39' W 074°05'3 5.7
2018-Jan-10 16:59N 40°40' W 074°01'2 3.6
2018-Jan-10 16:29N 40°39' W 074°03'2 3.6
2018-Jan-10 15:58N 40°40' W 074°01'0 0.0
2018-Jan-10 15:28N 40°40' W 074°01'0 0.0
2018-Jan-10 14:58N 40°40' W 074°01'0 0.2
2018-Jan-10 14:28N 40°40' W 074°01'0 0.0
2018-Jan-10 13:58N 40°40' W 074°01'0 0.0
2018-Jan-10 13:28N 40°40' W 074°01'0 0.0
2018-Jan-10 12:58N 40°40' W 074°01'0 0.0
2018-Jan-10 12:28N 40°40' W 074°01'0 0.0
2018-Jan-10 12:01N 40°40' W 074°01'0 0.0
2018-Jan-10 11:31N 40°40' W 074°01'0 0.0
2018-Jan-10 10:58N 40°40' W 074°01'0 0.0
2018-Jan-10 10:28N 40°40' W 074°01'0 0.0
2018-Jan-10 09:58N 40°40' W 074°01'0 0.0
2018-Jan-10 09:28N 40°40' W 074°01'0 0.0
2018-Jan-10 09:01N 40°40' W 074°01'1 1.3
2018-Jan-10 08:30N 40°40' W 074°01'3 6.1
2018-Jan-10 08:00N 40°39' W 074°05'0 0.0
2018-Jan-10 07:30N 40°39' W 074°05'2 4.9
2018-Jan-10 07:00N 40°40' W 074°02'0 0.1
2018-Jan-10 06:30N 40°40' W 074°02'0 0.0
2018-Jan-10 06:00N 40°40' W 074°02'0 0.1
2018-Jan-10 05:30N 40°40' W 074°02'0 0.2
2018-Jan-10 05:01N 40°40' W 074°02'1 1.5
2018-Jan-10 04:30N 40°40' W 074°01'1 1.5
2018-Jan-10 03:58N 40°40' W 074°02'0 0.0
2018-Jan-10 03:28N 40°40' W 074°02'0 0.0
2018-Jan-10 02:58N 40°40' W 074°02'0 0.0
2018-Jan-10 02:28N 40°40' W 074°02'0 0.0
2018-Jan-10 01:58N 40°40' W 074°02'0 0.0
2018-Jan-10 01:28N 40°40' W 074°02'0 0.0
2018-Jan-10 00:58N 40°40' W 074°02'0 0.0
2018-Jan-10 00:28N 40°40' W 074°02'0 0.0
2018-Jan-09 23:58N 40°40' W 074°02'0 0.0
2018-Jan-09 23:28N 40°40' W 074°02'0 0.0
2018-Jan-09 22:58N 40°40' W 074°02'0 0.0
2018-Jan-09 22:28N 40°40' W 074°02'0 0.1
2018-Jan-09 21:58N 40°40' W 074°02'0 0.1
2018-Jan-09 21:28N 40°40' W 074°02'0 0.0
2018-Jan-09 20:58N 40°40' W 074°02'0 0.1
2018-Jan-09 20:28N 40°40' W 074°02'0 0.1
2018-Jan-09 19:58N 40°40' W 074°02'0 0.1
2018-Jan-09 19:28N 40°40' W 074°02'0 0.0
2018-Jan-09 18:58N 40°40' W 074°02'0 0.0
2018-Jan-09 18:28N 40°40' W 074°02'0 0.0
2018-Jan-09 17:58N 40°40' W 074°02'0 0.0
2018-Jan-09 17:28N 40°40' W 074°02'0 0.0
2018-Jan-09 17:01N 40°40' W 074°02'0 0.8
2018-Jan-09 16:31N 40°40' W 074°02'4 7.1
2018-Jan-09 16:01N 40°43' W 073°58'2 0.1
2018-Jan-08 20:06N 40°45' W 073°58'2 8.3
2018-Jan-08 19:52N 40°43' W 073°58'3 8.6
2018-Jan-08 19:30N 40°41' W 074°01'3 6.7
2018-Jan-08 18:59N 40°39' W 074°05'0 0.1
2018-Jan-08 18:30N 40°39' W 074°05'2 0.7
2018-Jan-08 15:35N 40°38' W 074°08'1 8.9
2018-Jan-08 15:30N 40°39' W 074°07'4 8.9
2018-Jan-08 15:00N 40°40' W 074°02'1 1.2
2018-Jan-08 14:29N 40°40' W 074°01'0 0.0
2018-Jan-08 13:59N 40°40' W 074°01'0 0.0
2018-Jan-08 13:29N 40°40' W 074°01'0 0.0
2018-Jan-08 12:59N 40°40' W 074°01'0 0.0
2018-Jan-08 12:29N 40°40' W 074°01'0 0.0
2018-Jan-08 11:59N 40°40' W 074°01'0 0.0
2018-Jan-08 11:29N 40°40' W 074°01'0 0.0
2018-Jan-08 10:59N 40°40' W 074°01'0 0.0
2018-Jan-08 10:29N 40°40' W 074°01'0 0.0
2018-Jan-08 09:59N 40°40' W 074°01'0 0.0
2018-Jan-08 09:29N 40°40' W 074°01'0 0.0
2018-Jan-08 08:50N 40°40' W 074°01'0 0.0
2018-Jan-08 08:29N 40°40' W 074°01'0 0.0
2018-Jan-08 07:59N 40°40' W 074°01'0 0.0
2018-Jan-08 07:29N 40°40' W 074°01'  

Dump ship's entire track history